Time;durP1;ratioP1;P1;durP2;ratioP2;P2;SDS_P1;SDS_P2;PMS_P1;PMS_P2;Temp;Humidity;BMP_temperature;BMP_pressure;BME280_temperature;BME280_humidity;BME280_pressure;Samples;Min_cycle;Max_cycle;Signal;HPM_P1;HPM_P2
2022/10/10 00:00:37;;;;;;;;;;;;;;;21.14;32.51;98671.38;4939671;29;895;-83
2022/10/10 00:03:02;;;;;;;;;;;;;;;20.91;32.66;98689.06;4936029;29;1518;-83
2022/10/10 00:05:27;;;;;;;;;;;;;;;20.88;32.68;98684.25;4911748;29;1471;-83
2022/10/10 00:07:53;;;;;;;;;;;;;;;20.66;33.09;98681.69;4920875;29;1251;-82
2022/10/10 00:10:18;;;;;;;;;;;;;;;20.95;33.51;98676.50;4920577;29;1186;-83
2022/10/10 00:12:44;;;;;;;;;;;;;;;21.23;32.93;98680.94;4905112;29;1249;-83
2022/10/10 00:15:10;;;;;;;;;;;;;;;21.26;32.11;98685.75;4937997;29;1391;-83
2022/10/10 00:17:35;;;;;;;;;;;;;;;21.04;32.44;98690.13;4939748;29;1911;-83
2022/10/10 00:20:01;;;;;;;;;;;;;;;20.88;32.85;98687.91;4943345;29;1478;-82
2022/10/10 00:22:26;;;;;;;;;;;;;;;20.87;32.72;98685.47;4958826;29;1220;-83
2022/10/10 00:24:52;;;;;;;;;;;;;;;20.91;32.84;98686.25;4958705;29;1225;-83
2022/10/10 00:27:17;;;;;;;;;;;;;;;21.05;33.25;98681.22;4942509;29;756;-83
2022/10/10 00:29:43;;;;;;;;;;;;;;;21.20;32.61;98693.13;4958643;29;1401;-83
2022/10/10 00:32:08;;;;;;;;;;;;;;;21.06;32.83;98694.13;4958602;29;1206;-83
2022/10/10 00:34:33;;;;;;;;;;;;;;;20.94;32.85;98702.38;4948374;29;1549;-83
2022/10/10 00:36:59;;;;;;;;;;;;;;;20.86;32.61;98700.84;4938933;29;1918;-83
2022/10/10 00:39:24;;;;;;;;;;;;;;;20.91;32.42;98706.06;4940322;29;831;-83
2022/10/10 00:41:50;;;;;;;;;;;;;;;20.89;32.71;98706.47;4938900;29;1116;-83
2022/10/10 00:44:15;;;;;;;;;;;;;;;20.98;33.21;98705.94;4938318;29;990;-83
2022/10/10 00:46:41;;;;;;;;;;;;;;;21.15;33.03;98704.94;4922980;29;1281;-83
2022/10/10 00:49:16;;;;;;;;;;;;;;;21.19;32.82;98702.84;4919063;29;1253;-83
2022/10/10 00:51:43;;;;;;;;;;;;;;;21.18;32.69;98706.88;4918912;29;952;-83
2022/10/10 00:54:09;;;;;;;;;;;;;;;20.80;32.98;98698.50;4919146;29;796;-82
2022/10/10 00:56:37;;;;;;;;;;;;;;;20.79;32.77;98702.56;4918068;29;1962;-83
2022/10/10 00:59:03;;;;;;;;;;;;;;;20.79;32.99;98701.75;4918739;29;1118;-83
2022/10/10 01:01:28;;;;;;;;;;;;;;;20.75;32.93;98701.78;4918862;29;1148;-83
2022/10/10 01:03:58;;;;;;;;;;;;;;;20.85;32.99;98704.91;4918369;29;803;-83
2022/10/10 01:06:23;;;;;;;;;;;;;;;21.01;33.26;98713.59;4918149;29;796;-83
2022/10/10 01:08:48;;;;;;;;;;;;;;;21.32;32.72;98703.91;4918750;29;1094;-83
2022/10/10 01:11:14;;;;;;;;;;;;;;;21.04;32.85;98707.91;4917983;29;1554;-83
2022/10/10 01:13:39;;;;;;;;;;;;;;;21.07;32.61;98711.91;4918768;29;948;-83
2022/10/10 01:16:25;;;;;;;;;;;;;;;21.01;32.62;98713.59;4918528;29;1980;-83
2022/10/10 01:19:06;;;;;;;;;;;;;;;20.86;33.06;98712.16;4902688;29;1136;-83
2022/10/10 01:21:31;;;;;;;;;;;;;;;20.70;33.10;98705.09;4939430;29;840;-83
2022/10/10 01:24:08;;;;;;;;;;;;;;;20.71;33.16;98703.84;4939493;29;760;-83
2022/10/10 01:26:52;;;;;;;;;;;;;;;20.90;33.60;98719.41;4929100;29;1495;-83
2022/10/10 01:29:23;;;;;;;;;;;;;;;21.25;32.69;98712.47;4938526;29;1206;-83
2022/10/10 01:31:49;;;;;;;;;;;;;;;21.23;32.31;98714.91;4938758;29;831;-83
2022/10/10 01:34:18;;;;;;;;;;;;;;;20.97;32.88;98715.66;4938270;29;712;-82
2022/10/10 01:36:47;;;;;;;;;;;;;;;20.83;33.25;98718.66;4939259;29;1987;-82
2022/10/10 01:39:15;;;;;;;;;;;;;;;20.61;33.35;98718.91;4922200;29;828;-83
2022/10/10 01:41:42;;;;;;;;;;;;;;;20.71;33.12;98720.81;4937781;29;1554;-82
2022/10/10 01:44:07;;;;;;;;;;;;;;;21.04;33.16;98729.75;4938302;29;724;-83
2022/10/10 01:50:10;;;;;;;;;;;;;;;21.16;32.55;98720.69;4939182;29;637;-82
2022/10/10 01:52:40;;;;;;;;;;;;;;;20.91;32.61;98726.66;4938259;29;875;-83
2022/10/10 01:55:24;;;;;;;;;;;;;;;20.99;32.42;98733.84;4936486;29;1665;-82
2022/10/10 01:58:08;;;;;;;;;;;;;;;20.84;32.56;98720.28;4937729;29;1942;-83
2022/10/10 02:00:35;;;;;;;;;;;;;;;20.63;33.14;98722.16;4938160;29;740;-83
2022/10/10 02:03:10;;;;;;;;;;;;;;;20.78;32.54;98720.75;4938152;29;1186;-83
2022/10/10 02:05:47;;;;;;;;;;;;;;;20.68;32.97;98723.72;4938471;29;1143;-83
2022/10/10 02:08:14;;;;;;;;;;;;;;;21.00;33.34;98731.81;4938076;29;752;-83
2022/10/10 02:10:41;;;;;;;;;;;;;;;21.07;33.15;98728.88;4918117;29;1149;-83
2022/10/10 02:13:06;;;;;;;;;;;;;;;21.33;32.51;98735.84;4914658;29;1483;-83
2022/10/10 02:15:33;;;;;;;;;;;;;;;20.97;33.06;98747.59;4917775;29;1906;-83
2022/10/10 02:17:59;;;;;;;;;;;;;;;20.84;32.97;98742.91;4920140;29;832;-82
2022/10/10 02:20:25;;;;;;;;;;;;;;;20.66;32.92;98741.06;4921472;29;816;-83
2022/10/10 02:22:51;;;;;;;;;;;;;;;20.93;33.16;98751.69;4921504;29;1150;-83
2022/10/10 02:25:16;;;;;;;;;;;;;;;21.10;32.85;98753.50;4921805;29;1246;-83
2022/10/10 02:27:43;;;;;;;;;;;;;;;21.25;32.80;98751.28;4921699;29;836;-83
2022/10/10 02:30:09;;;;;;;;;;;;;;;21.05;32.56;98749.13;4917655;29;1519;-83
2022/10/10 02:32:42;;;;;;;;;;;;;;;20.85;32.94;98761.50;4937430;29;756;-83
2022/10/10 02:35:08;;;;;;;;;;;;;;;20.91;32.41;98763.44;4937287;29;771;-83
2022/10/10 02:37:34;;;;;;;;;;;;;;;20.88;32.24;98763.47;4921411;29;1919;-82
2022/10/10 02:40:00;;;;;;;;;;;;;;;20.72;32.81;98764.84;4937192;29;784;-81
2022/10/10 02:42:26;;;;;;;;;;;;;;;20.69;33.07;98760.03;4930605;29;1353;-83
2022/10/10 02:44:51;;;;;;;;;;;;;;;20.52;33.20;98761.00;4925516;29;761;-83
2022/10/10 02:47:17;;;;;;;;;;;;;;;21.02;33.30;98769.75;4941171;29;1215;-82
2022/10/10 02:49:42;;;;;;;;;;;;;;;21.19;32.54;98762.28;4941275;29;1240;-83
2022/10/10 02:52:08;;;;;;;;;;;;;;;21.30;32.37;98765.81;4937475;29;1403;-82
2022/10/10 02:54:33;;;;;;;;;;;;;;;21.36;32.20;98771.00;4938017;29;1116;-82
2022/10/10 02:56:58;;;;;;;;;;;;;;;21.05;32.68;98770.94;4906315;29;1907;-83
2022/10/10 02:59:24;;;;;;;;;;;;;;;21.13;32.45;98778.09;4922892;29;1538;-82
2022/10/10 03:01:49;;;;;;;;;;;;;;;20.78;32.87;98774.50;4940948;29;776;-82
2022/10/10 03:04:15;;;;;;;;;;;;;;;20.70;33.12;98770.13;4941101;29;823;-83
2022/10/10 03:06:41;;;;;;;;;;;;;;;20.69;33.35;98777.00;4941309;29;1279;-82
2022/10/10 03:09:06;;;;;;;;;;;;;;;20.43;33.64;98781.28;4925012;29;875;-82
2022/10/10 03:11:32;;;;;;;;;;;;;;;20.47;33.56;98781.28;4924656;29;1224;-82
2022/10/10 03:13:57;;;;;;;;;;;;;;;20.78;33.07;98785.81;4939870;29;1378;-83
2022/10/10 03:16:23;;;;;;;;;;;;;;;20.67;32.87;98784.28;4940897;29;1910;-82
2022/10/10 03:18:48;;;;;;;;;;;;;;;20.86;33.25;98794.19;4941140;29;1192;-83
2022/10/10 03:21:13;;;;;;;;;;;;;;;21.08;32.74;98804.84;4940901;29;1226;-83
2022/10/10 03:23:39;;;;;;;;;;;;;;;21.25;32.39;98796.59;4924781;29;768;-83
2022/10/10 03:26:04;;;;;;;;;;;;;;;21.17;32.27;98807.19;4940820;29;824;-82
2022/10/10 03:28:30;;;;;;;;;;;;;;;21.01;32.50;98801.31;4940281;29;1451;-82
2022/10/10 03:30:55;;;;;;;;;;;;;;;20.72;32.84;98801.59;4942060;29;740;-83
2022/10/10 03:33:21;;;;;;;;;;;;;;;20.73;32.94;98803.22;4941577;29;749;-83
2022/10/10 03:35:46;;;;;;;;;;;;;;;21.13;32.13;98800.75;4941891;29;1903;-83
2022/10/10 03:38:12;;;;;;;;;;;;;;;21.39;32.40;98812.59;4924600;29;814;-83
2022/10/10 03:40:39;;;;;;;;;;;;;;;21.31;32.45;98807.03;4940504;29;1242;-83
2022/10/10 03:43:05;;;;;;;;;;;;;;;21.46;32.22;98807.66;4940329;29;1685;-82
2022/10/10 03:45:30;;;;;;;;;;;;;;;20.85;32.89;98812.41;4940306;29;1193;-83
2022/10/10 03:47:56;;;;;;;;;;;;;;;20.63;33.14;98812.63;4955786;29;828;-83
2022/10/10 03:50:21;;;;;;;;;;;;;;;20.70;33.04;98806.88;4923445;29;1078;-82
2022/10/10 03:56:21;;;;;;;;;;;;;;;20.69;33.82;98804.50;4941525;29;1959;-83
2022/10/10 03:58:47;;;;;;;;;;;;;;;21.07;32.68;98796.78;4940948;29;740;-82
2022/10/10 04:01:12;;;;;;;;;;;;;;;21.21;32.82;98807.94;4955714;29;1162;-83
2022/10/10 04:03:38;;;;;;;;;;;;;;;21.00;32.42;98806.16;4951606;29;1177;-83
2022/10/10 04:06:04;;;;;;;;;;;;;;;20.73;33.14;98814.53;4935384;29;975;-83
2022/10/10 04:08:30;;;;;;;;;;;;;;;20.69;32.77;98816.59;4882348;29;924;-83
2022/10/10 04:10:56;;;;;;;;;;;;;;;20.83;32.60;98821.31;4892546;29;1284;-83
2022/10/10 04:13:21;;;;;;;;;;;;;;;20.73;32.78;98817.38;4900534;29;889;-83
2022/10/10 04:15:50;;;;;;;;;;;;;;;20.95;33.12;98812.28;4900575;29;1982;-82
2022/10/10 04:18:15;;;;;;;;;;;;;;;21.14;32.58;98819.34;4900342;29;841;-82
2022/10/10 04:20:41;;;;;;;;;;;;;;;21.26;32.20;98821.63;4899609;29;978;-82
2022/10/10 04:23:06;;;;;;;;;;;;;;;20.84;32.78;98827.78;4899668;29;1204;-82
2022/10/10 04:25:32;;;;;;;;;;;;;;;20.76;32.67;98822.19;4883402;29;1166;-82
2022/10/10 04:27:57;;;;;;;;;;;;;;;20.62;32.95;98827.97;4899913;29;954;-82
2022/10/10 04:30:23;;;;;;;;;;;;;;;20.88;32.40;98834.19;4868153;29;1198;-83
2022/10/10 04:32:48;;;;;;;;;;;;;;;20.78;32.89;98836.72;4900113;29;1125;-83
2022/10/10 04:35:14;;;;;;;;;;;;;;;21.01;33.34;98849.41;4899526;29;876;-82
2022/10/10 04:37:39;;;;;;;;;;;;;;;21.20;32.69;98845.97;4899327;29;1985;-82
2022/10/10 04:40:05;;;;;;;;;;;;;;;21.23;32.63;98842.28;4912952;29;1138;-82
2022/10/10 04:42:30;;;;;;;;;;;;;;;20.97;32.94;98848.63;4903345;29;810;-82
2022/10/10 04:44:56;;;;;;;;;;;;;;;20.86;32.97;98842.28;4919425;29;1313;-82
2022/10/10 04:47:21;;;;;;;;;;;;;;;20.68;32.71;98836.81;4920005;29;788;-82
2022/10/10 04:49:46;;;;;;;;;;;;;;;20.67;32.83;98836.00;4918916;29;776;-83
2022/10/10 04:52:12;;;;;;;;;;;;;;;20.72;32.92;98841.19;4921106;29;720;-82
2022/10/10 04:54:37;;;;;;;;;;;;;;;20.87;32.67;98850.34;4919879;29;1181;-83
2022/10/10 04:57:03;;;;;;;;;;;;;;;21.13;33.08;98854.50;4920030;29;1988;-83
2022/10/10 04:59:28;;;;;;;;;;;;;;;21.32;32.76;98842.59;4919807;29;876;-82
2022/10/10 05:01:54;;;;;;;;;;;;;;;21.08;32.82;98843.66;4920835;29;879;-83
2022/10/10 05:04:19;;;;;;;;;;;;;;;20.97;32.99;98846.59;4919803;29;1101;-83
2022/10/10 05:06:45;;;;;;;;;;;;;;;20.77;33.20;98854.88;4921213;29;799;-83
2022/10/10 05:09:10;;;;;;;;;;;;;;;20.80;32.91;98862.53;4920848;29;705;-83
2022/10/10 05:11:36;;;;;;;;;;;;;;;21.17;33.18;98858.13;4919851;29;1042;-82
2022/10/10 05:14:02;;;;;;;;;;;;;;;21.45;32.60;98857.03;4921091;29;761;-82
2022/10/10 05:16:27;;;;;;;;;;;;;;;21.14;32.80;98852.47;4920542;29;1887;-82
2022/10/10 05:18:53;;;;;;;;;;;;;;;20.79;33.30;98865.81;4919839;29;732;-82
2022/10/10 05:21:18;;;;;;;;;;;;;;;20.92;32.82;98866.06;4919363;29;1390;-83
2022/10/10 05:23:43;;;;;;;;;;;;;;;20.80;32.89;98859.72;4919558;29;764;-82
2022/10/10 05:26:09;;;;;;;;;;;;;;;20.77;33.21;98873.88;4919500;29;772;-83
2022/10/10 05:28:35;;;;;;;;;;;;;;;20.85;33.00;98874.63;4920625;29;807;-83
2022/10/10 05:31:01;;;;;;;;;;;;;;;21.07;33.15;98881.69;4919719;29;847;-83
2022/10/10 05:33:26;;;;;;;;;;;;;;;21.17;32.89;98889.25;4918070;29;851;-83
2022/10/10 05:35:52;;;;;;;;;;;;;;;21.46;32.39;98886.13;4918214;29;1906;-83
2022/10/10 05:38:17;;;;;;;;;;;;;;;21.26;32.54;98889.56;4918225;29;966;-82
2022/10/10 05:40:43;;;;;;;;;;;;;;;20.97;33.07;98894.69;4918136;29;765;-82
2022/10/10 05:43:08;;;;;;;;;;;;;;;20.84;32.92;98896.47;4918266;29;839;-82
2022/10/10 05:45:34;;;;;;;;;;;;;;;20.96;32.93;98900.78;4918071;29;785;-82
2022/10/10 05:47:59;;;;;;;;;;;;;;;20.47;33.44;98860.44;4917983;29;811;-82
2022/10/10 05:50:37;;;;;;;;;;;;;;;20.85;32.94;98895.22;4918491;29;1161;-82
2022/10/10 05:53:03;;;;;;;;;;;;;;;21.20;33.21;98902.56;4922100;29;854;-82
2022/10/10 05:55:48;;;;;;;;;;;;;;;21.25;33.20;98893.63;4897365;29;1968;-82
2022/10/10 05:58:13;;;;;;;;;;;;;;;21.11;32.94;98898.63;4884659;29;1442;-82
2022/10/10 06:00:39;;;;;;;;;;;;;;;21.02;33.05;98901.94;4884408;29;860;-83
2022/10/10 06:03:05;;;;;;;;;;;;;;;21.01;33.04;98909.63;4884503;29;875;-82
2022/10/10 06:05:30;;;;;;;;;;;;;;;20.95;32.79;98919.00;4848953;29;902;-83
2022/10/10 06:07:56;;;;;;;;;;;;;;;20.76;33.00;98918.34;4878385;29;773;-82
2022/10/10 06:10:21;;;;;;;;;;;;;;;20.65;33.54;98919.66;4877269;29;1182;-82
2022/10/10 06:12:47;;;;;;;;;;;;;;;20.56;33.66;98920.13;4831099;29;844;-82
2022/10/10 06:15:12;;;;;;;;;;;;;;;20.73;33.25;98922.03;4831065;29;924;-82
2022/10/10 06:17:38;;;;;;;;;;;;;;;20.79;33.14;98928.03;4877791;29;1986;-83
2022/10/10 06:20:03;;;;;;;;;;;;;;;21.21;33.55;98926.81;4880040;29;870;-82
2022/10/10 06:22:29;;;;;;;;;;;;;;;21.29;33.20;98928.31;4864490;29;900;-82
2022/10/10 06:24:54;;;;;;;;;;;;;;;21.07;32.99;98927.75;4880657;29;1249;-82
2022/10/10 06:27:20;;;;;;;;;;;;;;;20.92;33.36;98925.47;4894339;29;1130;-82
2022/10/10 06:29:45;;;;;;;;;;;;;;;20.74;33.65;98925.66;4901695;29;836;-82
2022/10/10 06:32:11;;;;;;;;;;;;;;;20.92;32.94;98920.63;4901325;29;761;-82
2022/10/10 06:34:36;;;;;;;;;;;;;;;20.70;33.24;98931.31;4883031;29;1269;-82
2022/10/10 06:37:02;;;;;;;;;;;;;;;20.71;33.36;98932.91;4883518;29;1915;-82
2022/10/10 06:39:28;;;;;;;;;;;;;;;21.01;33.64;98940.75;4883736;29;1265;-83
2022/10/10 06:41:53;;;;;;;;;;;;;;;21.40;32.79;98930.28;4883132;29;702;-83
2022/10/10 06:44:18;;;;;;;;;;;;;;;21.14;33.03;98938.22;4882861;29;1141;-83
2022/10/10 06:46:44;;;;;;;;;;;;;;;20.86;33.48;98938.47;4882354;29;1292;-84
2022/10/10 06:49:09;;;;;;;;;;;;;;;20.79;33.62;98940.13;4882149;29;808;-82
2022/10/10 06:51:35;;;;;;;;;;;;;;;20.86;33.24;98944.13;4884960;29;899;-82
2022/10/10 06:54:00;;;;;;;;;;;;;;;20.88;32.78;98939.66;4900545;29;744;-82
2022/10/10 06:56:26;;;;;;;;;;;;;;;20.79;32.89;98947.81;4900406;29;1888;-82
2022/10/10 06:58:52;;;;;;;;;;;;;;;21.08;32.83;98942.69;4900389;29;831;-83
2022/10/10 07:01:18;;;;;;;;;;;;;;;21.28;33.08;98949.38;4900390;29;895;-82
2022/10/10 07:03:43;;;;;;;;;;;;;;;21.33;32.75;98957.44;4899581;29;801;-82
2022/10/10 07:06:09;;;;;;;;;;;;;;;21.13;32.71;98947.91;4900476;29;949;-83
2022/10/10 07:08:35;;;;;;;;;;;;;;;20.99;32.90;98953.72;4900363;29;756;-82
2022/10/10 07:11:01;;;;;;;;;;;;;;;20.99;32.84;98950.88;4901851;29;1142;-84
2022/10/10 07:13:27;;;;;;;;;;;;;;;20.80;32.91;98946.59;4904738;29;740;-83
2022/10/10 07:15:52;;;;;;;;;;;;;;;20.66;33.11;98953.16;4920434;29;1907;-83
2022/10/10 07:18:17;;;;;;;;;;;;;;;20.84;32.64;98955.06;4920616;29;981;-84
2022/10/10 07:20:43;;;;;;;;;;;;;;;21.06;33.07;98957.28;4920245;29;1228;-83
2022/10/10 07:23:08;;;;;;;;;;;;;;;21.45;32.56;98958.13;4920132;29;850;-82
2022/10/10 07:25:36;;;;;;;;;;;;;;;21.39;32.23;98965.47;4921095;29;824;-82
2022/10/10 07:28:02;;;;;;;;;;;;;;;20.93;33.01;98967.47;4919972;29;780;-82
2022/10/10 07:30:27;;;;;;;;;;;;;;;20.75;33.09;98967.66;4920567;29;1201;-82
2022/10/10 07:32:54;;;;;;;;;;;;;;;20.73;33.12;98970.09;4921324;29;733;-82
2022/10/10 07:35:20;;;;;;;;;;;;;;;20.83;32.83;98970.41;4919928;29;855;-82
2022/10/10 07:37:46;;;;;;;;;;;;;;;20.67;33.07;98973.75;4921656;29;1995;-82
2022/10/10 07:40:11;;;;;;;;;;;;;;;20.72;32.72;98968.47;4921321;29;1246;-82
2022/10/10 07:42:37;;;;;;;;;;;;;;;20.60;32.82;98966.16;4920655;29;729;-82
2022/10/10 07:45:03;;;;;;;;;;;;;;;20.71;32.64;98966.88;4920081;29;757;-83
2022/10/10 07:47:28;;;;;;;;;;;;;;;20.59;32.90;98963.75;4921556;29;717;-82
2022/10/10 07:49:53;;;;;;;;;;;;;;;20.91;33.20;98958.63;4919744;29;820;-83
2022/10/10 07:52:19;;;;;;;;;;;;;;;21.32;32.30;98961.50;4920041;29;804;-83
2022/10/10 07:54:44;;;;;;;;;;;;;;;21.19;32.54;98968.91;4920859;29;741;-83
2022/10/10 07:57:10;;;;;;;;;;;;;;;20.93;32.99;98961.81;4921232;29;1922;-83
2022/10/10 07:59:35;;;;;;;;;;;;;;;20.76;33.10;98966.41;4921727;29;757;-83
2022/10/10 08:02:01;;;;;;;;;;;;;;;20.83;32.64;98961.91;4920426;29;864;-82
2022/10/10 08:04:26;;;;;;;;;;;;;;;20.79;32.67;98965.59;4919738;29;776;-82
2022/10/10 08:06:52;;;;;;;;;;;;;;;20.62;33.13;98958.03;4920186;29;851;-82
2022/10/10 08:09:17;;;;;;;;;;;;;;;20.68;33.08;98962.06;4899409;29;914;-83
2022/10/10 08:11:43;;;;;;;;;;;;;;;20.81;32.67;98960.31;4899590;29;1105;-83
2022/10/10 08:14:08;;;;;;;;;;;;;;;21.22;32.57;98962.38;4884061;29;926;-82
2022/10/10 08:16:33;;;;;;;;;;;;;;;21.35;32.25;98964.69;4932427;29;1922;-82
2022/10/10 08:18:59;;;;;;;;;;;;;;;21.17;32.10;98962.84;4919310;29;963;-82
2022/10/10 08:21:24;;;;;;;;;;;;;;;20.97;32.73;98961.81;4919925;29;816;-83
2022/10/10 08:23:50;;;;;;;;;;;;;;;20.88;32.98;98961.47;4935301;29;1229;-82
2022/10/10 08:26:16;;;;;;;;;;;;;;;20.76;32.67;98952.28;4919700;29;1118;-83
2022/10/10 08:28:41;;;;;;;;;;;;;;;20.67;32.81;98960.41;4919339;29;1092;-82
2022/10/10 08:31:12;;;;;;;;;;;;;;;20.54;33.21;98951.66;4919364;29;713;-82
2022/10/10 08:33:38;;;;;;;;;;;;;;;20.72;32.92;98951.50;4934888;29;756;-82
2022/10/10 08:36:04;;;;;;;;;;;;;;;20.79;33.51;98957.13;4918617;29;1966;-82
2022/10/10 08:38:30;;;;;;;;;;;;;;;21.19;32.62;98957.56;4954190;29;1343;-83
2022/10/10 08:40:55;;;;;;;;;;;;;;;21.22;32.13;98951.06;4950041;29;879;-82
2022/10/10 08:43:41;;;;;;;;;;;;;;;21.19;31.87;98966.06;4941832;29;863;-82
2022/10/10 08:46:17;;;;;;;;;;;;;;;20.92;32.49;98970.75;4958829;29;1097;-82
2022/10/10 08:48:43;;;;;;;;;;;;;;;20.81;32.73;98954.66;4957681;29;1115;-83
2022/10/10 08:51:09;;;;;;;;;;;;;;;20.87;32.29;98962.69;4941574;29;1272;-83
2022/10/10 08:53:38;;;;;;;;;;;;;;;20.65;32.71;98962.88;4940981;29;1128;-82
2022/10/10 08:56:06;;;;;;;;;;;;;;;21.00;31.89;98972.31;4937774;29;1977;-82
2022/10/10 08:58:32;;;;;;;;;;;;;;;20.92;32.19;98962.25;4921948;29;1184;-83
2022/10/10 09:01:03;;;;;;;;;;;;;;;20.73;32.41;98964.44;4937798;29;1048;-82
2022/10/10 09:03:48;;;;;;;;;;;;;;;20.66;32.29;98975.78;4921856;29;1243;-83
2022/10/10 09:06:31;;;;;;;;;;;;;;;20.61;32.28;98967.75;4921838;29;822;-83
2022/10/10 09:09:09;;;;;;;;;;;;;;;20.97;32.12;98973.91;4937550;29;780;-82
2022/10/10 09:11:43;;;;;;;;;;;;;;;21.13;32.30;98976.22;4937617;29;1191;-83
2022/10/10 09:14:41;;;;;;;;;;;;;;;21.30;31.78;98958.28;4922263;29;1353;-82
2022/10/10 09:17:12;;;;;;;;;;;;;;;20.95;32.14;98972.75;4918622;29;2223;-82
2022/10/10 09:19:43;;;;;;;;;;;;;;;20.75;32.55;98973.31;4918364;29;946;-83
2022/10/10 09:22:13;;;;;;;;;;;;;;;20.74;32.23;98971.69;4908581;29;904;-83
2022/10/10 09:24:46;;;;;;;;;;;;;;;20.62;32.57;98977.84;4914180;29;965;-83
2022/10/10 09:27:14;;;;;;;;;;;;;;;20.84;32.09;98969.22;4914081;29;1069;-83
2022/10/10 09:29:45;;;;;;;;;;;;;;;20.74;32.19;98985.84;4914302;29;856;-82
2022/10/10 09:32:36;;;;;;;;;;;;;;;20.73;32.32;98969.28;4898641;29;1276;-82
2022/10/10 09:35:11;;;;;;;;;;;;;;;21.00;32.64;98966.63;4898490;29;1158;-82
2022/10/10 09:37:37;;;;;;;;;;;;;;;21.22;31.82;98961.56;4882972;29;1989;-82
2022/10/10 09:40:10;;;;;;;;;;;;;;;21.10;31.96;98954.41;4883450;29;1110;-82
2022/10/10 09:42:36;;;;;;;;;;;;;;;21.13;32.06;98964.88;4898550;29;753;-82
2022/10/10 09:45:02;;;;;;;;;;;;;;;20.90;32.40;98961.88;4879767;29;1241;-83
2022/10/10 09:47:28;;;;;;;;;;;;;;;21.09;31.67;98952.81;4892766;29;1504;-83
2022/10/10 09:49:53;;;;;;;;;;;;;;;21.00;32.04;98958.16;4877435;29;807;-83
2022/10/10 09:52:26;;;;;;;;;;;;;;;20.71;32.17;98960.41;4877261;29;1035;-83
2022/10/10 09:54:52;;;;;;;;;;;;;;;20.75;32.40;98950.69;4880613;29;908;-83
2022/10/10 09:57:18;;;;;;;;;;;;;;;20.80;32.06;98957.91;4864969;29;1989;-83
2022/10/10 09:59:44;;;;;;;;;;;;;;;20.99;31.94;98959.38;4865138;29;1283;-83
2022/10/10 10:02:19;;;;;;;;;;;;;;;21.00;32.35;98944.00;4865209;29;1177;-83
2022/10/10 10:04:46;;;;;;;;;;;;;;;21.42;31.83;98942.78;4849490;29;869;-83
2022/10/10 10:07:30;;;;;;;;;;;;;;;20.86;32.61;98949.78;4864802;29;913;-82
2022/10/10 10:10:16;;;;;;;;;;;;;;;21.07;32.24;98938.28;4864785;29;1231;-83
2022/10/10 10:12:42;;;;;;;;;;;;;;;20.88;32.32;98953.81;4880638;29;1226;-83
2022/10/10 10:15:17;;;;;;;;;;;;;;;20.89;32.29;98938.44;4896953;29;818;-82
2022/10/10 10:17:43;;;;;;;;;;;;;;;20.84;32.07;98941.72;4857884;29;1911;-83
2022/10/10 10:20:34;;;;;;;;;;;;;;;20.68;32.37;98945.09;4858893;29;1091;-83
2022/10/10 10:23:00;;;;;;;;;;;;;;;20.75;32.36;98942.19;4875316;29;1200;-83
2022/10/10 10:25:35;;;;;;;;;;;;;;;20.79;32.08;98936.50;4880332;29;1277;-83
2022/10/10 10:28:09;;;;;;;;;;;;;;;20.69;32.37;98941.03;4877417;29;1110;-83
2022/10/10 10:30:35;;;;;;;;;;;;;;;20.90;32.52;98933.59;4877156;29;966;-83
2022/10/10 10:33:03;;;;;;;;;;;;;;;21.23;32.12;98930.00;4877074;29;884;-83
2022/10/10 10:35:31;;;;;;;;;;;;;;;21.23;31.92;98929.22;4876957;29;957;-83
2022/10/10 10:38:02;;;;;;;;;;;;;;;20.97;32.43;98930.69;4862249;29;1982;-83
2022/10/10 10:40:32;;;;;;;;;;;;;;;21.00;32.14;98929.84;4865358;29;1063;-83
2022/10/10 10:43:09;;;;;;;;;;;;;;;20.93;32.24;98927.88;4880451;29;788;-83
2022/10/10 10:45:53;;;;;;;;;;;;;;;20.86;32.55;98929.97;4880616;29;1336;-83
2022/10/10 10:48:21;;;;;;;;;;;;;;;20.85;32.45;98934.84;4864772;29;1018;-83
2022/10/10 10:50:51;;;;;;;;;;;;;;;20.89;32.49;98926.31;4880600;29;1201;-83
2022/10/10 10:53:35;;;;;;;;;;;;;;;21.00;31.87;98921.38;4880280;29;1087;-83
2022/10/10 10:56:18;;;;;;;;;;;;;;;20.66;32.79;98910.75;4880262;29;1970;-83
2022/10/10 10:58:50;;;;;;;;;;;;;;;20.97;32.73;98916.53;4883765;29;920;-83
2022/10/10 11:01:26;;;;;;;;;;;;;;;21.45;32.05;98907.16;4901325;29;1129;-83
2022/10/10 11:03:51;;;;;;;;;;;;;;;21.20;32.01;98908.22;4886039;29;812;-84
2022/10/10 11:06:37;;;;;;;;;;;;;;;20.95;32.47;98902.81;4886541;29;1115;-83
2022/10/10 11:09:05;;;;;;;;;;;;;;;20.72;33.08;98900.59;4828175;29;1217;-83
2022/10/10 11:11:37;;;;;;;;;;;;;;;20.89;32.37;98900.88;4827626;29;1107;-83
2022/10/10 11:14:15;;;;;;;;;;;;;;;20.91;32.61;98895.59;4827747;29;1132;-83
2022/10/10 11:16:45;;;;;;;;;;;;;;;20.80;32.72;98884.38;4812625;29;1968;-83
2022/10/10 11:19:10;;;;;;;;;;;;;;;20.87;32.27;98883.50;4797360;29;1133;-83
2022/10/10 11:21:56;;;;;;;;;;;;;;;20.85;32.36;98888.78;4827552;29;938;-83
2022/10/10 11:24:34;;;;;;;;;;;;;;;20.93;32.47;98893.13;4828090;29;1194;-83
2022/10/10 11:27:01;;;;;;;;;;;;;;;20.80;32.45;98885.16;4827822;29;1359;-83
2022/10/10 11:29:27;;;;;;;;;;;;;;;20.95;32.73;98890.69;4827909;29;781;-83
2022/10/10 11:31:53;;;;;;;;;;;;;;;21.17;32.70;98886.41;4827848;29;862;-83
2022/10/10 11:34:23;;;;;;;;;;;;;;;21.28;32.00;98892.75;4828162;29;1052;-82
2022/10/10 11:36:48;;;;;;;;;;;;;;;21.04;32.48;98891.81;4846123;29;1978;-83
2022/10/10 11:39:14;;;;;;;;;;;;;;;20.78;32.85;98884.00;4830860;29;1065;-83
2022/10/10 11:41:41;;;;;;;;;;;;;;;20.76;32.90;98877.94;4845886;29;710;-83
2022/10/10 11:44:09;;;;;;;;;;;;;;;20.69;32.87;98886.50;4846127;29;726;-83
2022/10/10 11:46:55;;;;;;;;;;;;;;;20.86;32.45;98881.88;4888002;29;933;-83
2022/10/10 11:49:23;;;;;;;;;;;;;;;20.87;32.50;98881.47;4919768;29;1084;-82
2022/10/10 11:52:07;;;;;;;;;;;;;;;20.95;32.26;98880.19;4904708;29;1134;-83
2022/10/10 11:54:39;;;;;;;;;;;;;;;20.64;32.67;98872.81;4921525;29;741;-83
2022/10/10 11:57:11;;;;;;;;;;;;;;;20.81;32.39;98878.28;4920189;29;1910;-82
2022/10/10 12:00:03;;;;;;;;;;;;;;;20.74;32.61;98877.56;4921099;29;717;-82
2022/10/10 12:02:31;;;;;;;;;;;;;;;20.71;32.47;98879.19;4881820;29;1015;-82
2022/10/10 12:04:56;;;;;;;;;;;;;;;20.91;32.75;98872.94;4865988;29;1070;-82
2022/10/10 12:07:40;;;;;;;;;;;;;;;21.06;32.87;98874.41;4866217;29;1046;-83
2022/10/10 12:10:08;;;;;;;;;;;;;;;21.12;32.88;98867.06;4881047;29;1146;-83
2022/10/10 12:12:37;;;;;;;;;;;;;;;21.06;32.56;98863.91;4865516;29;893;-82
2022/10/10 12:15:04;;;;;;;;;;;;;;;20.97;32.52;98872.06;4865209;29;792;-82
2022/10/10 12:17:32;;;;;;;;;;;;;;;21.08;32.55;98861.44;4865506;29;1891;-82
2022/10/10 12:20:09;;;;;;;;;;;;;;;20.87;32.74;98860.88;4881142;29;926;-83
2022/10/10 12:22:34;;;;;;;;;;;;;;;20.89;32.77;98864.09;4866992;29;761;-82
2022/10/10 12:25:20;;;;;;;;;;;;;;;21.03;32.57;98869.59;4867107;29;741;-83
2022/10/10 12:28:04;;;;;;;;;;;;;;;20.95;32.39;98868.06;4866647;29;1433;-83
2022/10/10 12:34:03;;;;;;;;;;;;;;;20.70;32.74;98869.09;4882022;29;635;-83
2022/10/10 12:36:29;;;;;;;;;;;;;;;20.92;32.20;98875.34;4882134;29;2035;-83
2022/10/10 12:39:01;;;;;;;;;;;;;;;20.81;32.71;98875.47;4895732;29;1335;-83
2022/10/10 12:41:35;;;;;;;;;;;;;;;20.81;32.40;98875.47;4920480;29;694;-83
2022/10/10 12:47:15;;;;;;;;;;;;;;;20.65;32.85;98861.06;4920956;29;1482;-83
2022/10/10 12:49:57;;;;;;;;;;;;;;;20.67;32.67;98874.78;4921510;29;741;-83
2022/10/10 12:52:23;;;;;;;;;;;;;;;20.58;32.66;98874.47;4920157;29;838;-83
2022/10/10 12:54:48;;;;;;;;;;;;;;;20.65;32.46;98880.06;4920185;29;792;-83
2022/10/10 12:57:20;;;;;;;;;;;;;;;20.62;32.39;98883.72;4920657;29;1981;-83
2022/10/10 12:59:45;;;;;;;;;;;;;;;20.68;32.22;98876.41;4921433;29;779;-83
2022/10/10 13:02:19;;;;;;;;;;;;;;;20.61;32.45;98880.09;4919231;29;748;-83
2022/10/10 13:04:44;;;;;;;;;;;;;;;20.52;32.48;98874.09;4920195;29;792;-83
2022/10/10 13:07:12;;;;;;;;;;;;;;;20.72;31.86;98874.34;4919752;29;824;-83
2022/10/10 13:09:37;;;;;;;;;;;;;;;20.98;32.85;98887.00;4920232;29;820;-83
2022/10/10 13:12:03;;;;;;;;;;;;;;;21.26;32.24;98883.91;4920117;29;1088;-83
2022/10/10 13:14:47;;;;;;;;;;;;;;;21.36;32.24;98887.06;4919616;29;808;-83
2022/10/10 13:17:19;;;;;;;;;;;;;;;20.97;32.56;98879.75;4920776;29;1911;-83
2022/10/10 13:19:44;;;;;;;;;;;;;;;20.77;32.72;98885.19;4920741;29;906;-83
2022/10/10 13:22:09;;;;;;;;;;;;;;;20.79;32.33;98877.13;4921094;29;784;-83